createdAt,value
2023-05-25T00:01:26.392Z,4.97
2023-05-25T00:04:16.917Z,5.00
2023-05-25T00:07:06.263Z,4.53
2023-05-25T00:09:56.394Z,3.35
2023-05-25T00:12:45.071Z,5.70
2023-05-25T00:15:33.711Z,6.47
2023-05-25T00:18:22.410Z,3.60
2023-05-25T00:21:11.896Z,5.47
2023-05-25T00:24:00.515Z,5.93
2023-05-25T00:26:50.524Z,5.68
2023-05-25T00:29:39.278Z,5.10
2023-05-25T00:32:28.072Z,5.60
2023-05-25T00:35:16.992Z,5.07
2023-05-25T00:38:05.747Z,7.28
2023-05-25T00:40:57.281Z,3.90
2023-05-25T00:43:48.317Z,7.07
2023-05-25T00:46:37.594Z,3.88
2023-05-25T00:49:26.815Z,3.58
2023-05-25T00:52:17.066Z,2.63
2023-05-25T00:55:08.314Z,3.92
2023-05-25T00:57:59.559Z,3.42
2023-05-25T01:00:53.418Z,3.65
2023-05-25T01:03:46.779Z,2.60
2023-05-25T01:06:37.749Z,4.47
2023-05-25T01:09:28.761Z,4.90
2023-05-25T01:12:18.879Z,2.33
2023-05-25T01:15:08.841Z,4.28
2023-05-25T01:17:59.419Z,5.25
2023-05-25T01:21:13.299Z,5.20
2023-05-25T01:24:12.088Z,2.67
2023-05-25T01:27:09.390Z,4.13
2023-05-25T01:30:00.947Z,2.78
2023-05-25T01:32:51.263Z,2.67
2023-05-25T01:35:40.844Z,5.05
2023-05-25T01:38:30.991Z,4.03
2023-05-25T01:41:19.674Z,6.85
2023-05-25T01:44:08.864Z,4.80
2023-05-25T01:47:05.093Z,2.97
2023-05-25T01:50:04.579Z,6.97
2023-05-25T01:52:58.709Z,7.28
2023-05-25T01:55:57.686Z,4.05
2023-05-25T01:58:50.813Z,4.68
2023-05-25T02:01:41.258Z,2.58
2023-05-25T02:04:31.444Z,3.47
2023-05-25T02:07:20.212Z,3.55
2023-05-25T02:10:10.076Z,2.88
2023-05-25T02:13:00.155Z,3.00
2023-05-25T02:15:48.753Z,6.13
2023-05-25T02:18:37.495Z,3.17
2023-05-25T02:21:26.206Z,2.28
2023-05-25T02:24:14.933Z,3.20
2023-05-25T02:27:03.553Z,3.47
2023-05-25T02:29:53.915Z,2.78
2023-05-25T02:32:42.719Z,1.90
2023-05-25T02:35:31.423Z,5.35
2023-05-25T02:38:20.114Z,4.68
2023-05-25T02:41:08.881Z,3.83
2023-05-25T02:43:58.138Z,5.32
2023-05-25T02:46:48.351Z,4.22
2023-05-25T02:49:36.988Z,6.65
2023-05-25T02:52:26.105Z,4.13
2023-05-25T02:55:18.852Z,4.50
2023-05-25T02:58:07.943Z,4.22
2023-05-25T03:00:56.976Z,3.05
2023-05-25T03:03:47.386Z,3.50
2023-05-25T03:06:36.557Z,3.25
2023-05-25T03:09:25.307Z,4.97
2023-05-25T03:12:14.049Z,3.33
2023-05-25T03:15:02.732Z,3.65
2023-05-25T03:17:51.761Z,2.75
2023-05-25T03:20:42.240Z,5.15
2023-05-25T03:23:31.097Z,3.47
2023-05-25T03:26:19.777Z,3.80
2023-05-25T03:29:08.582Z,2.63
2023-05-25T03:31:57.353Z,3.33
2023-05-25T03:34:46.080Z,3.67
2023-05-25T03:37:36.113Z,5.10
2023-05-25T03:40:25.362Z,4.63
2023-05-25T03:43:14.055Z,4.75
2023-05-25T03:46:02.836Z,8.20
2023-05-25T03:48:51.558Z,4.13
2023-05-25T03:51:40.219Z,5.18
2023-05-25T03:54:31.438Z,3.75
2023-05-25T03:57:20.114Z,8.15
2023-05-25T04:00:10.570Z,3.92
2023-05-25T04:02:59.568Z,3.78
2023-05-25T04:05:48.423Z,4.55
2023-05-25T04:08:37.088Z,8.63
2023-05-25T04:11:27.608Z,3.15
2023-05-25T04:14:16.268Z,5.80
2023-05-25T04:17:05.111Z,2.03
2023-05-25T04:19:54.197Z,2.70
2023-05-25T04:22:44.519Z,5.47
2023-05-25T04:25:33.270Z,8.57
2023-05-25T04:28:23.351Z,3.90
2023-05-25T04:31:12.910Z,4.15
2023-05-25T04:34:02.778Z,5.78
2023-05-25T04:36:51.445Z,7.55
2023-05-25T04:39:40.105Z,2.33
2023-05-25T04:42:28.940Z,6.90
2023-05-25T04:45:21.559Z,2.88
2023-05-25T04:48:10.312Z,6.90
2023-05-25T04:51:03.040Z,8.25
2023-05-25T04:53:52.242Z,3.67
2023-05-25T04:56:40.924Z,3.05
2023-05-25T04:59:29.577Z,5.15
2023-05-25T05:02:19.672Z,3.63
2023-05-25T05:05:08.807Z,12.90
2023-05-25T05:07:57.976Z,10.23
2023-05-25T05:10:46.612Z,3.67
2023-05-25T05:13:35.237Z,13.90
2023-05-25T05:16:24.127Z,5.85
2023-05-25T05:19:14.264Z,6.85
2023-05-25T05:22:03.073Z,7.72
2023-05-25T05:24:51.929Z,6.40
2023-05-25T05:27:40.647Z,8.13
2023-05-25T05:30:29.359Z,4.80
2023-05-25T05:33:18.244Z,7.32
2023-05-25T05:36:09.203Z,9.32
2023-05-25T05:38:57.853Z,6.82
2023-05-25T05:41:46.465Z,5.25
2023-05-25T05:44:35.169Z,6.45
2023-05-25T05:47:23.800Z,9.95
2023-05-25T05:50:13.231Z,4.78
2023-05-25T05:53:03.289Z,8.93
2023-05-25T05:55:56.297Z,8.02
2023-05-25T05:58:45.214Z,7.35
2023-05-25T06:01:34.136Z,5.65
2023-05-25T06:04:25.396Z,7.10
2023-05-25T06:07:14.189Z,4.55
2023-05-25T06:10:04.272Z,4.75
2023-05-25T06:12:53.992Z,5.70
2023-05-25T06:15:43.129Z,4.28
2023-05-25T06:18:31.910Z,4.72
2023-05-25T06:21:20.749Z,5.30
2023-05-25T06:24:10.273Z,4.00
2023-05-25T06:27:00.559Z,6.40
2023-05-25T06:29:49.392Z,4.57
2023-05-25T06:32:38.084Z,7.10
2023-05-25T06:35:26.866Z,4.00
2023-05-25T06:38:15.609Z,9.18
2023-05-25T06:41:05.497Z,5.80
2023-05-25T06:43:55.590Z,8.25
2023-05-25T06:46:44.307Z,4.28
2023-05-25T06:49:33.197Z,4.35
2023-05-25T06:52:21.945Z,7.35
2023-05-25T06:55:11.000Z,4.60
2023-05-25T06:57:59.659Z,10.05
2023-05-25T07:00:49.902Z,4.97
2023-05-25T07:03:38.679Z,9.82
2023-05-25T07:06:27.503Z,5.88
2023-05-25T07:09:17.393Z,7.80
2023-05-25T07:12:07.697Z,4.15
2023-05-25T07:14:56.829Z,8.02
2023-05-25T07:17:50.013Z,5.50
2023-05-25T07:20:42.233Z,3.80
2023-05-25T07:23:31.494Z,13.02
2023-05-25T07:26:21.306Z,3.45
2023-05-25T07:29:09.921Z,6.35
2023-05-25T07:31:58.572Z,3.00
2023-05-25T07:34:48.742Z,4.47
2023-05-25T07:37:37.555Z,4.35
2023-05-25T07:40:26.275Z,5.13
2023-05-25T07:43:15.088Z,4.88
2023-05-25T07:46:04.050Z,3.85
2023-05-25T07:48:54.622Z,3.53
2023-05-25T07:51:45.749Z,3.50
2023-05-25T07:54:34.910Z,4.93
2023-05-25T07:57:23.709Z,4.43
2023-05-25T08:00:13.729Z,2.30
2023-05-25T08:03:03.649Z,8.55
2023-05-25T08:05:52.768Z,3.53
2023-05-25T08:08:45.015Z,7.80
2023-05-25T08:11:33.976Z,3.30
2023-05-25T08:14:23.853Z,3.05
2023-05-25T08:17:12.719Z,7.57
2023-05-25T08:20:01.674Z,7.82
2023-05-25T08:22:53.521Z,8.27
2023-05-25T08:25:44.311Z,3.75
2023-05-25T08:28:33.969Z,6.80
2023-05-25T08:31:22.627Z,5.32
2023-05-25T08:34:11.483Z,4.53
2023-05-25T08:37:00.126Z,4.57
2023-05-25T08:39:48.837Z,4.07
2023-05-25T08:42:39.073Z,4.15
2023-05-25T08:48:39.460Z,4.28
2023-05-25T08:51:32.501Z,5.22
2023-05-25T08:54:24.121Z,3.00
2023-05-25T08:57:17.184Z,4.22
2023-05-25T09:00:11.618Z,4.88
2023-05-25T09:03:08.336Z,3.50
2023-05-25T09:05:58.474Z,3.22
2023-05-25T09:08:47.975Z,5.35
2023-05-25T09:11:39.974Z,4.57
2023-05-25T09:14:30.789Z,5.63
2023-05-25T09:17:21.360Z,5.57
2023-05-25T09:20:13.979Z,3.28
2023-05-25T09:23:03.312Z,4.93
2023-05-25T09:25:53.214Z,6.53
2023-05-25T09:28:47.803Z,5.82
2023-05-25T09:31:36.962Z,5.15
2023-05-25T09:34:33.911Z,4.28
2023-05-25T09:37:23.463Z,4.28
2023-05-25T09:40:13.781Z,3.40
2023-05-25T09:43:05.353Z,6.28
2023-05-25T09:45:54.591Z,4.25
2023-05-25T09:48:46.432Z,3.92
2023-05-25T09:51:37.905Z,4.15
2023-05-25T09:54:27.556Z,2.55
2023-05-25T09:57:17.207Z,5.07
2023-05-25T10:00:06.458Z,3.70
2023-05-25T10:02:55.455Z,6.43
2023-05-25T10:05:44.278Z,4.78
2023-05-25T10:08:37.661Z,4.05
2023-05-25T10:11:28.020Z,5.22
2023-05-25T10:14:21.953Z,5.68
2023-05-25T10:17:15.575Z,6.05
2023-05-25T10:20:09.289Z,3.17
2023-05-25T10:23:03.018Z,4.32
2023-05-25T10:25:56.978Z,3.33
2023-05-25T10:28:47.549Z,5.18
2023-05-25T10:31:37.830Z,3.88
2023-05-25T10:34:28.352Z,3.92
2023-05-25T10:37:18.693Z,11.18
2023-05-25T10:40:09.774Z,5.10
2023-05-25T10:43:00.880Z,5.45
2023-05-25T10:45:50.287Z,4.18
2023-05-25T10:48:39.878Z,3.58
2023-05-25T10:51:39.652Z,3.40
2023-05-25T10:54:32.106Z,10.40
2023-05-25T10:57:23.526Z,2.35
2023-05-25T11:00:15.813Z,5.57
2023-05-25T11:03:04.899Z,6.13
2023-05-25T11:05:54.098Z,7.57
2023-05-25T11:08:51.118Z,2.72
2023-05-25T11:12:04.551Z,3.10
2023-05-25T11:15:16.600Z,3.33
2023-05-25T11:18:05.630Z,5.63
2023-05-25T11:21:13.729Z,4.80
2023-05-25T11:24:04.286Z,3.50
2023-05-25T11:26:58.031Z,5.03
2023-05-25T11:29:51.657Z,2.75
2023-05-25T11:32:50.867Z,5.03
2023-05-25T11:35:39.647Z,4.88
2023-05-25T11:38:28.563Z,3.17
2023-05-25T11:41:18.893Z,4.35
2023-05-25T11:44:08.715Z,1.95
2023-05-25T11:46:58.639Z,4.32
2023-05-25T11:49:49.909Z,5.13
2023-05-25T11:52:38.699Z,5.75
2023-05-25T11:55:27.460Z,19.30
2023-05-25T11:58:16.088Z,35.70
2023-05-25T12:01:19.085Z,51.35
2023-05-25T12:04:11.536Z,46.33
2023-05-25T12:07:05.510Z,33.55
2023-05-25T12:09:54.542Z,24.95
2023-05-25T12:12:43.358Z,22.58
2023-05-25T12:15:32.158Z,23.83
2023-05-25T12:18:21.173Z,33.75
2023-05-25T12:21:10.649Z,21.20
2023-05-25T12:24:01.761Z,23.50
2023-05-25T12:26:51.572Z,20.20
2023-05-25T12:29:48.304Z,29.77
2023-05-25T12:32:37.631Z,14.85
2023-05-25T12:35:26.453Z,17.95
2023-05-25T12:38:16.247Z,12.30
2023-05-25T12:41:09.757Z,9.32
2023-05-25T12:43:58.834Z,13.32
2023-05-25T12:46:47.972Z,9.30
2023-05-25T12:49:36.898Z,5.70
2023-05-25T12:52:35.238Z,10.50
2023-05-25T12:55:29.126Z,4.78
2023-05-25T12:58:30.227Z,7.95
2023-05-25T13:01:19.002Z,5.80
2023-05-25T13:04:07.785Z,8.30
2023-05-25T13:06:56.816Z,5.22
2023-05-25T13:09:45.753Z,6.50
2023-05-25T13:12:36.421Z,4.07
2023-05-25T13:15:27.140Z,6.55
2023-05-25T13:18:15.955Z,6.45
2023-05-25T13:21:04.823Z,6.00
2023-05-25T13:23:53.762Z,4.13
2023-05-25T13:26:45.660Z,3.95
2023-05-25T13:29:35.105Z,2.75
2023-05-25T13:32:25.414Z,3.78
2023-05-25T13:35:19.367Z,2.72
2023-05-25T13:38:08.116Z,2.80
2023-05-25T13:40:57.649Z,3.08
2023-05-25T13:43:47.215Z,14.77
2023-05-25T13:46:37.767Z,5.78
2023-05-25T13:49:27.878Z,4.00
2023-05-25T13:52:16.586Z,4.65
2023-05-25T13:55:05.810Z,5.60
2023-05-25T13:57:54.499Z,2.17
2023-05-25T14:00:43.624Z,3.13
2023-05-25T14:03:33.116Z,2.85
2023-05-25T14:06:23.348Z,4.88
2023-05-25T14:09:12.894Z,2.58
2023-05-25T14:12:03.025Z,4.25
2023-05-25T14:14:51.778Z,3.92
2023-05-25T14:17:40.605Z,3.83
2023-05-25T14:20:29.347Z,8.35
2023-05-25T14:23:20.028Z,9.05
2023-05-25T14:26:08.670Z,7.57
2023-05-25T14:28:57.346Z,4.32
2023-05-25T14:31:46.525Z,4.80
2023-05-25T14:34:35.281Z,4.63
2023-05-25T14:37:24.021Z,3.20
2023-05-25T14:40:15.068Z,22.90
2023-05-25T14:43:03.904Z,6.50
2023-05-25T14:45:52.621Z,6.82
2023-05-25T14:48:41.413Z,5.03
2023-05-25T14:51:30.484Z,5.70
2023-05-25T14:54:19.176Z,2.40
2023-05-25T14:57:09.193Z,3.90
2023-05-25T14:59:58.019Z,6.07
2023-05-25T15:02:46.706Z,4.55
2023-05-25T15:05:35.596Z,3.47
2023-05-25T15:08:24.480Z,57.13
2023-05-25T15:11:13.174Z,21.83
2023-05-25T15:14:03.202Z,11.40
2023-05-25T15:16:51.848Z,13.57
2023-05-25T15:19:40.522Z,8.18
2023-05-25T15:22:29.134Z,3.85
2023-05-25T15:25:24.601Z,6.57
2023-05-25T15:28:20.153Z,6.20
2023-05-25T15:31:10.312Z,9.90
2023-05-25T15:34:00.659Z,4.07
2023-05-25T15:36:49.496Z,4.38
2023-05-25T15:39:38.390Z,4.93
2023-05-25T15:42:27.065Z,10.80
2023-05-25T15:45:16.903Z,4.97
2023-05-25T15:48:10.159Z,2.22
2023-05-25T15:50:58.881Z,2.67
2023-05-25T15:53:48.173Z,3.28
2023-05-25T15:56:37.067Z,2.72
2023-05-25T15:59:25.762Z,3.72
2023-05-25T16:02:14.513Z,3.88
2023-05-25T16:05:06.046Z,6.07
2023-05-25T16:07:54.739Z,6.72
2023-05-25T16:10:43.442Z,8.10
2023-05-25T16:13:32.150Z,4.07
2023-05-25T16:16:20.821Z,4.05
2023-05-25T16:19:10.518Z,3.45
2023-05-25T16:22:02.400Z,3.65
2023-05-25T16:24:51.338Z,11.45
2023-05-25T16:27:40.062Z,7.00
2023-05-25T16:30:28.727Z,6.20
2023-05-25T16:33:17.569Z,5.57
2023-05-25T16:36:07.326Z,4.00
2023-05-25T16:38:57.475Z,10.23
2023-05-25T16:41:47.321Z,10.65
2023-05-25T16:44:36.905Z,12.48
2023-05-25T16:47:25.566Z,16.77
2023-05-25T16:50:14.413Z,20.95
2023-05-25T16:53:03.112Z,21.70
2023-05-25T16:55:53.261Z,23.55
2023-05-25T16:58:41.962Z,13.45
2023-05-25T17:01:30.686Z,10.38
2023-05-25T17:04:19.449Z,8.93
2023-05-25T17:07:08.266Z,8.52
2023-05-25T17:09:56.908Z,5.68
2023-05-25T17:12:46.905Z,6.90
2023-05-25T17:15:35.564Z,5.63
2023-05-25T17:18:24.985Z,5.63
2023-05-25T17:21:14.397Z,9.15
2023-05-25T17:24:03.516Z,5.45
2023-05-25T17:26:52.318Z,5.75
2023-05-25T17:29:45.533Z,7.72
2023-05-25T17:32:34.279Z,4.70
2023-05-25T17:35:23.245Z,9.23
2023-05-25T17:38:11.967Z,6.30
2023-05-25T17:41:00.720Z,5.47
2023-05-25T17:43:49.481Z,6.78
2023-05-25T17:46:39.804Z,8.27
2023-05-25T17:49:28.548Z,10.02
2023-05-25T17:52:17.263Z,7.10
2023-05-25T17:55:07.266Z,6.88
2023-05-25T17:57:55.894Z,7.88
2023-05-25T18:00:44.861Z,6.72
2023-05-25T18:03:35.239Z,6.70
2023-05-25T18:06:23.891Z,6.10
2023-05-25T18:09:18.023Z,8.10
2023-05-25T18:12:09.729Z,8.65
2023-05-25T18:14:58.402Z,6.00
2023-05-25T18:17:50.221Z,5.18
2023-05-25T18:20:40.538Z,11.52
2023-05-25T18:23:29.327Z,6.95
2023-05-25T18:26:17.899Z,5.30
2023-05-25T18:29:06.542Z,4.95
2023-05-25T18:31:55.153Z,7.35
2023-05-25T18:34:45.141Z,6.13
2023-05-25T18:37:35.811Z,5.97
2023-05-25T18:40:24.467Z,9.55
2023-05-25T18:43:13.235Z,3.28
2023-05-25T18:46:01.946Z,8.68
2023-05-25T18:48:50.675Z,17.95
2023-05-25T18:51:40.140Z,5.97
2023-05-25T18:54:30.297Z,8.52
2023-05-25T18:57:18.929Z,7.65
2023-05-25T19:00:09.033Z,4.95
2023-05-25T19:02:58.372Z,8.30
2023-05-25T19:05:47.238Z,3.80
2023-05-25T19:08:35.938Z,6.10
2023-05-25T19:11:26.161Z,6.10
2023-05-25T19:14:14.855Z,8.18
2023-05-25T19:17:03.537Z,6.18
2023-05-25T19:19:52.315Z,5.25
2023-05-25T19:22:41.834Z,5.30
2023-05-25T19:25:30.582Z,6.03
2023-05-25T19:28:20.673Z,5.57
2023-05-25T19:31:09.362Z,4.60
2023-05-25T19:33:58.054Z,3.00
2023-05-25T19:36:48.251Z,6.03
2023-05-25T19:39:44.875Z,4.07
2023-05-25T19:42:33.535Z,6.88
2023-05-25T19:45:23.765Z,4.97
2023-05-25T19:48:12.414Z,3.10
2023-05-25T19:51:01.359Z,3.08
2023-05-25T19:53:51.976Z,2.63
2023-05-25T19:56:42.339Z,6.65
2023-05-25T19:59:32.748Z,3.45
2023-05-25T20:02:23.010Z,4.72
2023-05-25T20:05:12.660Z,5.80
2023-05-25T20:08:01.282Z,4.63
2023-05-25T20:10:52.311Z,4.72
2023-05-25T20:13:41.400Z,2.70
2023-05-25T20:16:30.153Z,3.17
2023-05-25T20:19:22.389Z,4.93
2023-05-25T20:22:11.206Z,4.35
2023-05-25T20:25:00.924Z,3.50
2023-05-25T20:27:49.703Z,9.95
2023-05-25T20:30:38.436Z,2.67
2023-05-25T20:33:27.214Z,3.55
2023-05-25T20:36:17.301Z,4.47
2023-05-25T20:39:05.939Z,4.68
2023-05-25T20:41:54.558Z,4.20
2023-05-25T20:44:43.309Z,3.88
2023-05-25T20:47:32.077Z,7.60
2023-05-25T20:50:20.820Z,3.80
2023-05-25T20:53:11.945Z,5.95
2023-05-25T20:56:00.666Z,4.45
2023-05-25T20:58:49.351Z,7.85
2023-05-25T21:01:38.143Z,2.55
2023-05-25T21:04:26.803Z,5.90
2023-05-25T21:07:15.733Z,2.60
2023-05-25T21:10:06.614Z,3.60
2023-05-25T21:12:55.268Z,2.55
2023-05-25T21:15:44.154Z,2.25
2023-05-25T21:18:33.084Z,3.38
2023-05-25T21:21:22.012Z,2.08
2023-05-25T21:24:10.655Z,2.95
2023-05-25T21:27:01.441Z,2.53
2023-05-25T21:29:50.108Z,2.58
2023-05-25T21:32:38.908Z,3.03
2023-05-25T21:35:27.580Z,3.58
2023-05-25T21:38:16.252Z,3.20
2023-05-25T21:41:04.910Z,3.30
2023-05-25T21:43:54.956Z,5.18
2023-05-25T21:46:46.803Z,2.45
2023-05-25T21:49:35.593Z,3.25
2023-05-25T21:52:24.305Z,5.03
2023-05-25T21:55:13.053Z,2.78
2023-05-25T21:58:01.813Z,3.20
2023-05-25T22:00:54.046Z,3.05
2023-05-25T22:03:42.762Z,3.25
2023-05-25T22:06:34.410Z,4.30
2023-05-25T22:09:23.069Z,3.20
2023-05-25T22:12:16.125Z,2.55
2023-05-25T22:15:05.767Z,4.32
2023-05-25T22:17:57.053Z,3.53
2023-05-25T22:20:45.972Z,5.18
2023-05-25T22:23:34.723Z,3.38
2023-05-25T22:26:23.694Z,3.25
2023-05-25T22:29:12.510Z,3.28
2023-05-25T22:32:01.293Z,2.88
2023-05-25T22:34:51.385Z,3.97
2023-05-25T22:37:40.072Z,4.63
2023-05-25T22:40:28.747Z,5.78
2023-05-25T22:43:17.709Z,3.97
2023-05-25T22:46:06.416Z,5.43
2023-05-25T22:48:55.085Z,6.43
2023-05-25T22:51:45.456Z,3.78
2023-05-25T22:54:34.318Z,2.38
2023-05-25T22:57:22.929Z,2.92
2023-05-25T23:00:12.527Z,4.07
2023-05-25T23:03:04.008Z,4.88
2023-05-25T23:05:53.245Z,2.65
2023-05-25T23:08:44.019Z,2.38
2023-05-25T23:11:32.622Z,3.38
2023-05-25T23:14:21.802Z,2.47
2023-05-25T23:17:10.469Z,2.80
2023-05-25T23:19:59.166Z,3.33
2023-05-25T23:22:48.777Z,2.42
2023-05-25T23:25:41.922Z,3.60
2023-05-25T23:28:30.695Z,2.70
2023-05-25T23:31:19.371Z,3.95
2023-05-25T23:34:08.110Z,2.53
2023-05-25T23:36:58.201Z,4.60
2023-05-25T23:39:47.154Z,4.90
2023-05-25T23:42:41.615Z,3.67
2023-05-25T23:45:30.372Z,3.60
2023-05-25T23:48:19.145Z,2.97
2023-05-25T23:51:08.420Z,2.97
2023-05-25T23:53:57.091Z,3.17
2023-05-25T23:56:45.802Z,3.10
2023-05-25T23:59:35.813Z,4.13
